Time;durP1;ratioP1;P1;durP2;ratioP2;P2;SDS_P1;SDS_P2;PMS_P1;PMS_P2;Temp;Humidity;BMP_temperature;BMP_pressure;BME280_temperature;BME280_humidity;BME280_pressure;Samples;Min_cycle;Max_cycle;Signal;HPM_P1;HPM_P2
2023/12/14 00:01:39;;;;;;;0.50;0.50;;;;;;;;;;4987105;28;20054;-77
2023/12/14 00:04:07;;;;;;;0.95;0.95;;;;;;;;;;4981519;28;20050;-78
2023/12/14 00:06:35;;;;;;;0.15;0.15;;;;;;;;;;4979426;28;20484;-77
2023/12/14 00:09:02;;;;;;;1.38;0.43;;;;;;;;;;4978354;28;20046;-77
2023/12/14 00:11:30;;;;;;;1.80;1.75;;;;;;;;;;4966523;28;20144;-77
2023/12/14 00:13:58;;;;;;;2.05;1.85;;;;;;;;;;4981648;28;20298;-77
2023/12/14 00:16:25;;;;;;;1.65;1.25;;;;;;;;;;4963882;28;20058;-77
2023/12/14 00:18:53;;;;;;;5.50;2.85;;;;;;;;;;4990365;28;20488;-77
2023/12/14 00:21:20;;;;;;;0.65;0.47;;;;;;;;;;4992660;28;20531;-78
2023/12/14 00:23:48;;;;;;;0.28;0.28;;;;;;;;;;4992527;28;20053;-77
2023/12/14 00:26:17;;;;;;;0.50;0.50;;;;;;;;;;4983932;28;20393;-77
2023/12/14 00:28:44;;;;;;;0.30;0.30;;;;;;;;;;4986978;28;20153;-77
2023/12/14 00:31:12;;;;;;;0.55;0.55;;;;;;;;;;4969902;28;20042;-77
2023/12/14 00:33:39;;;;;;;0.77;0.77;;;;;;;;;;4989279;28;20049;-77
2023/12/14 00:36:07;;;;;;;0.47;0.47;;;;;;;;;;4981701;28;20126;-77
2023/12/14 00:38:35;;;;;;;1.77;1.70;;;;;;;;;;4987682;28;20455;-77
2023/12/14 00:41:03;;;;;;;0.63;0.63;;;;;;;;;;4985301;28;20038;-77
2023/12/14 00:43:30;;;;;;;0.20;0.20;;;;;;;;;;4987077;28;20042;-77
2023/12/14 00:45:58;;;;;;;0.30;0.30;;;;;;;;;;4986114;28;20102;-77
2023/12/14 00:48:25;;;;;;;0.73;0.73;;;;;;;;;;4985675;28;20623;-77
2023/12/14 00:50:53;;;;;;;1.20;1.20;;;;;;;;;;4993264;28;20046;-77
2023/12/14 00:53:20;;;;;;;0.15;0.15;;;;;;;;;;4986572;28;20053;-77
2023/12/14 00:55:48;;;;;;;0.10;0.10;;;;;;;;;;4980823;28;20058;-78
2023/12/14 00:58:15;;;;;;;0.10;0.10;;;;;;;;;;4984095;28;20073;-77
2023/12/14 01:00:43;;;;;;;0.20;0.20;;;;;;;;;;4986507;28;20440;-77
2023/12/14 01:03:10;;;;;;;0.10;0.10;;;;;;;;;;4984460;28;20039;-78
2023/12/14 01:05:38;;;;;;;0.52;0.52;;;;;;;;;;4987762;28;20504;-77
2023/12/14 01:08:05;;;;;;;1.45;1.35;;;;;;;;;;4992639;28;20884;-77
2023/12/14 01:10:33;;;;;;;0.35;0.35;;;;;;;;;;4994401;28;20054;-77
2023/12/14 01:13:01;;;;;;;0.43;0.30;;;;;;;;;;4997555;28;20077;-78
2023/12/14 01:15:28;;;;;;;0.52;0.52;;;;;;;;;;4996525;28;20133;-76
2023/12/14 01:17:56;;;;;;;0.20;0.20;;;;;;;;;;4993215;28;20137;-78
2023/12/14 01:20:24;;;;;;;0.20;0.20;;;;;;;;;;5001167;28;20475;-77
2023/12/14 01:22:51;;;;;;;0.10;0.10;;;;;;;;;;4988522;28;20498;-77
2023/12/14 01:25:19;;;;;;;1.05;0.95;;;;;;;;;;4971980;28;20060;-77
2023/12/14 01:27:46;;;;;;;0.32;0.32;;;;;;;;;;4989751;28;20475;-77
2023/12/14 01:30:14;;;;;;;0.70;0.70;;;;;;;;;;4985509;28;20146;-78
2023/12/14 01:32:41;;;;;;;0.10;0.10;;;;;;;;;;4988082;28;20412;-77
2023/12/14 01:35:09;;;;;;;0.30;0.30;;;;;;;;;;4987039;28;20081;-77
2023/12/14 01:37:37;;;;;;;0.10;0.10;;;;;;;;;;4993621;28;20053;-78
2023/12/14 01:40:04;;;;;;;0.28;0.28;;;;;;;;;;4971298;28;20587;-78
2023/12/14 01:42:32;;;;;;;0.55;0.38;;;;;;;;;;4979883;28;20522;-77
2023/12/14 01:45:00;;;;;;;0.70;0.70;;;;;;;;;;4983437;28;20105;-77
2023/12/14 01:47:28;;;;;;;0.68;0.68;;;;;;;;;;4993889;28;20057;-77
2023/12/14 01:49:55;;;;;;;0.77;0.77;;;;;;;;;;4994605;28;20052;-78
2023/12/14 01:52:23;;;;;;;0.20;0.20;;;;;;;;;;4991238;28;20134;-78
2023/12/14 01:54:50;;;;;;;0.30;0.30;;;;;;;;;;4976391;28;20046;-77
2023/12/14 01:57:18;;;;;;;0.00;0.00;;;;;;;;;;4980531;28;20054;-77
2023/12/14 01:59:46;;;;;;;0.10;0.10;;;;;;;;;;4967928;28;20042;-77
2023/12/14 02:02:13;;;;;;;1.08;0.77;;;;;;;;;;4984192;28;20386;-78
2023/12/14 02:04:41;;;;;;;0.40;0.40;;;;;;;;;;4978922;28;20572;-77
2023/12/14 02:07:08;;;;;;;0.10;0.10;;;;;;;;;;4983234;28;20389;-77
2023/12/14 02:09:36;;;;;;;1.45;0.88;;;;;;;;;;4968734;28;20054;-77
2023/12/14 02:12:04;;;;;;;0.82;0.82;;;;;;;;;;4986950;28;20062;-77
2023/12/14 02:14:32;;;;;;;1.60;1.50;;;;;;;;;;4974940;28;20045;-77
2023/12/14 02:17:00;;;;;;;0.20;0.20;;;;;;;;;;4988246;28;20054;-77
2023/12/14 02:19:28;;;;;;;0.35;0.35;;;;;;;;;;4975417;28;20136;-77
2023/12/14 02:21:55;;;;;;;0.00;0.00;;;;;;;;;;4986978;28;20164;-77
2023/12/14 02:24:23;;;;;;;3.95;3.75;;;;;;;;;;4991828;28;20254;-77
2023/12/14 02:26:50;;;;;;;0.75;0.75;;;;;;;;;;4987080;28;20121;-77
2023/12/14 02:29:30;;;;;;;0.52;0.30;;;;;;;;;;4989337;28;20520;-77
2023/12/14 02:31:58;;;;;;;0.32;0.32;;;;;;;;;;4990806;28;20065;-77
2023/12/14 02:34:25;;;;;;;1.23;1.20;;;;;;;;;;4984809;28;20516;-77
2023/12/14 02:36:53;;;;;;;1.38;1.38;;;;;;;;;;4971399;28;20050;-77
2023/12/14 02:39:21;;;;;;;1.83;1.73;;;;;;;;;;4987918;28;20512;-77
2023/12/14 02:41:49;;;;;;;0.10;0.10;;;;;;;;;;4992550;28;20669;-77
2023/12/14 02:44:16;;;;;;;0.10;0.10;;;;;;;;;;4956771;28;1106881;-77
2023/12/14 02:46:44;;;;;;;0.20;0.20;;;;;;;;;;4975511;28;20034;-77
2023/12/14 02:49:11;;;;;;;0.47;0.47;;;;;;;;;;4987463;28;20509;-77
2023/12/14 02:51:39;;;;;;;0.38;0.38;;;;;;;;;;4989351;28;20473;-77
2023/12/14 02:54:06;;;;;;;0.60;0.60;;;;;;;;;;4986430;28;20578;-77
2023/12/14 02:56:33;;;;;;;0.10;0.10;;;;;;;;;;4987238;28;20058;-77
2023/12/14 02:59:01;;;;;;;0.40;0.40;;;;;;;;;;4987588;28;20259;-77
2023/12/14 03:01:29;;;;;;;0.43;0.43;;;;;;;;;;4988159;28;20406;-77
2023/12/14 03:03:56;;;;;;;0.20;0.20;;;;;;;;;;4992149;28;20674;-77
2023/12/14 03:06:24;;;;;;;1.30;0.52;;;;;;;;;;4997929;28;20061;-77
2023/12/14 03:08:51;;;;;;;0.10;0.10;;;;;;;;;;4989450;28;20480;-77
2023/12/14 03:11:25;;;;;;;0.65;0.65;;;;;;;;;;4988529;28;20058;-77
2023/12/14 03:13:52;;;;;;;1.17;0.73;;;;;;;;;;4971606;28;20096;-77
2023/12/14 03:16:20;;;;;;;0.10;0.10;;;;;;;;;;4979601;28;20046;-77
2023/12/14 03:18:52;;;;;;;0.10;0.10;;;;;;;;;;4987562;28;20170;-77
2023/12/14 03:21:20;;;;;;;0.47;0.47;;;;;;;;;;4992290;28;20050;-77
2023/12/14 03:23:48;;;;;;;0.10;0.10;;;;;;;;;;4986073;28;20064;-77
2023/12/14 03:26:16;;;;;;;0.10;0.10;;;;;;;;;;4987194;28;20042;-77
2023/12/14 03:28:43;;;;;;;0.77;0.77;;;;;;;;;;4992517;28;20069;-77
2023/12/14 03:31:12;;;;;;;2.13;1.50;;;;;;;;;;4985346;28;20050;-77
2023/12/14 03:33:40;;;;;;;0.10;0.10;;;;;;;;;;4989411;28;20137;-77
2023/12/14 03:36:08;;;;;;;0.65;0.65;;;;;;;;;;4987987;28;20406;-78
2023/12/14 03:38:36;;;;;;;0.52;0.52;;;;;;;;;;4991791;28;20068;-77
2023/12/14 03:41:03;;;;;;;0.40;0.40;;;;;;;;;;4972461;28;20397;-78
2023/12/14 03:43:31;;;;;;;0.93;0.93;;;;;;;;;;4969751;28;20129;-77
2023/12/14 03:45:58;;;;;;;0.20;0.20;;;;;;;;;;4990552;28;20066;-77
2023/12/14 03:48:26;;;;;;;7.75;4.55;;;;;;;;;;4987118;28;20050;-77
2023/12/14 03:50:53;;;;;;;0.45;0.45;;;;;;;;;;4989480;28;20126;-77
2023/12/14 03:53:21;;;;;;;0.38;0.38;;;;;;;;;;4987688;28;20073;-77
2023/12/14 03:55:48;;;;;;;1.58;1.10;;;;;;;;;;4986515;28;20587;-77
2023/12/14 03:58:16;;;;;;;2.35;2.15;;;;;;;;;;4988530;28;20880;-77
2023/12/14 04:00:43;;;;;;;0.13;0.13;;;;;;;;;;4982315;28;20349;-77
2023/12/14 04:03:11;;;;;;;0.65;0.43;;;;;;;;;;4987081;28;20046;-77
2023/12/14 04:05:39;;;;;;;0.10;0.10;;;;;;;;;;4985514;28;20054;-77
2023/12/14 04:08:07;;;;;;;1.60;1.50;;;;;;;;;;4986401;28;20133;-78
2023/12/14 04:10:35;;;;;;;0.10;0.10;;;;;;;;;;4991004;28;20152;-77
2023/12/14 04:13:02;;;;;;;1.35;1.25;;;;;;;;;;4988228;28;20054;-77
2023/12/14 04:15:29;;;;;;;0.40;0.40;;;;;;;;;;4987456;28;20430;-77
2023/12/14 04:17:57;;;;;;;1.80;1.65;;;;;;;;;;4976061;28;20054;-77
2023/12/14 04:20:25;;;;;;;0.28;0.28;;;;;;;;;;4982308;28;20050;-77
2023/12/14 04:22:52;;;;;;;2.35;1.48;;;;;;;;;;4985834;28;20046;-77
2023/12/14 04:25:20;;;;;;;1.48;1.25;;;;;;;;;;4982531;28;20074;-76
2023/12/14 04:27:47;;;;;;;2.30;2.17;;;;;;;;;;4985286;28;20120;-76
2023/12/14 04:30:15;;;;;;;0.77;0.77;;;;;;;;;;4983024;28;20058;-77
2023/12/14 04:32:42;;;;;;;1.02;0.98;;;;;;;;;;4974513;28;20397;-77
2023/12/14 04:35:10;;;;;;;0.95;0.95;;;;;;;;;;4985841;28;20575;-76
2023/12/14 04:37:38;;;;;;;0.25;0.25;;;;;;;;;;4983713;28;20505;-76
2023/12/14 04:40:06;;;;;;;0.60;0.60;;;;;;;;;;4981400;28;20392;-76
2023/12/14 04:42:33;;;;;;;1.08;0.82;;;;;;;;;;4985730;28;20046;-75
2023/12/14 04:45:01;;;;;;;0.43;0.43;;;;;;;;;;4983281;28;20050;-76
2023/12/14 04:47:28;;;;;;;1.60;1.50;;;;;;;;;;4971483;28;20492;-76
2023/12/14 04:49:56;;;;;;;3.03;1.10;;;;;;;;;;4988503;28;20058;-77
2023/12/14 04:52:24;;;;;;;2.47;1.95;;;;;;;;;;4989464;28;20058;-77
2023/12/14 04:54:52;;;;;;;1.17;1.08;;;;;;;;;;4989156;28;20049;-76
2023/12/14 04:57:19;;;;;;;1.08;1.00;;;;;;;;;;4988061;28;20519;-77
2023/12/14 04:59:46;;;;;;;0.93;0.93;;;;;;;;;;4989383;28;20049;-77
2023/12/14 05:02:14;;;;;;;0.95;0.95;;;;;;;;;;4978059;28;20568;-76
2023/12/14 05:04:42;;;;;;;0.10;0.10;;;;;;;;;;4980860;28;20417;-76
2023/12/14 05:07:09;;;;;;;0.63;0.63;;;;;;;;;;4967593;28;20134;-76
2023/12/14 05:09:36;;;;;;;0.20;0.20;;;;;;;;;;4985012;28;20563;-77
2023/12/14 05:12:04;;;;;;;0.03;0.03;;;;;;;;;;4989617;28;20477;-77
2023/12/14 05:14:32;;;;;;;0.15;0.13;;;;;;;;;;4984756;28;20073;-77
2023/12/14 05:16:59;;;;;;;0.20;0.20;;;;;;;;;;4984764;28;20141;-77
2023/12/14 05:19:27;;;;;;;0.13;0.13;;;;;;;;;;4976030;28;20057;-77
2023/12/14 05:21:55;;;;;;;0.50;0.50;;;;;;;;;;4987482;28;20039;-77
2023/12/14 05:24:22;;;;;;;1.67;1.58;;;;;;;;;;4970515;28;20069;-76
2023/12/14 05:26:50;;;;;;;0.28;0.28;;;;;;;;;;4968058;28;20126;-77
2023/12/14 05:29:17;;;;;;;2.08;0.80;;;;;;;;;;4978906;28;20069;-76
2023/12/14 05:31:45;;;;;;;0.15;0.15;;;;;;;;;;4980873;28;20133;-76
2023/12/14 05:34:12;;;;;;;1.95;1.27;;;;;;;;;;4972690;28;20051;-76
2023/12/14 05:36:40;;;;;;;1.27;1.25;;;;;;;;;;4965783;28;20057;-77
2023/12/14 05:39:07;;;;;;;0.70;0.50;;;;;;;;;;4983804;28;20057;-77
2023/12/14 05:41:39;;;;;;;1.17;1.17;;;;;;;;;;4980099;28;20457;-76
2023/12/14 05:44:07;;;;;;;0.10;0.10;;;;;;;;;;4979432;28;20051;-75
2023/12/14 05:46:35;;;;;;;0.20;0.20;;;;;;;;;;4984260;28;20315;-76
2023/12/14 05:49:03;;;;;;;0.13;0.13;;;;;;;;;;4988373;28;20049;-76
2023/12/14 05:51:31;;;;;;;0.85;0.85;;;;;;;;;;4988202;28;20073;-77
2023/12/14 05:54:00;;;;;;;1.80;1.63;;;;;;;;;;4998388;23;20046;-84
2023/12/14 05:56:27;;;;;;;1.05;0.80;;;;;;;;;;4994657;28;20061;-84
2023/12/14 05:58:55;;;;;;;0.10;0.10;;;;;;;;;;4976712;28;20058;-84
2023/12/14 06:01:24;;;;;;;0.10;0.10;;;;;;;;;;4988327;28;21317;-84
2023/12/14 06:03:52;;;;;;;3.47;1.15;;;;;;;;;;4977389;28;20046;-84
2023/12/14 06:06:20;;;;;;;1.90;1.20;;;;;;;;;;4993344;28;20471;-84
2023/12/14 06:08:48;;;;;;;0.50;0.50;;;;;;;;;;4968787;28;20058;-84
2023/12/14 06:11:16;;;;;;;0.80;0.75;;;;;;;;;;4995617;28;20512;-84
2023/12/14 06:13:43;;;;;;;1.23;1.23;;;;;;;;;;4982752;28;20149;-83
2023/12/14 06:16:12;;;;;;;0.43;0.43;;;;;;;;;;4977526;28;20050;-83
2023/12/14 06:18:43;;;;;;;0.68;0.68;;;;;;;;;;4964738;28;20056;-84
2023/12/14 06:21:13;;;;;;;1.48;1.08;;;;;;;;;;4987507;28;20458;-83
2023/12/14 06:23:41;;;;;;;0.55;0.55;;;;;;;;;;4976337;28;20174;-84
2023/12/14 06:26:08;;;;;;;1.23;1.23;;;;;;;;;;4994884;28;20045;-83
2023/12/14 06:28:35;;;;;;;2.10;2.00;;;;;;;;;;4975424;28;20046;-84
2023/12/14 06:31:03;;;;;;;15.77;11.00;;;;;;;;;;4980810;28;20051;-83
2023/12/14 06:33:31;;;;;;;0.52;0.52;;;;;;;;;;4979928;28;20076;-84
2023/12/14 06:36:03;;;;;;;3.28;2.95;;;;;;;;;;4986733;28;20133;-84
2023/12/14 06:38:31;;;;;;;0.93;0.93;;;;;;;;;;4989961;28;20046;-84
2023/12/14 06:40:58;;;;;;;0.40;0.40;;;;;;;;;;4995043;28;20054;-84
2023/12/14 06:43:26;;;;;;;0.80;0.80;;;;;;;;;;4975368;28;20130;-84
2023/12/14 06:45:53;;;;;;;0.40;0.40;;;;;;;;;;4994030;28;20060;-84
2023/12/14 06:48:21;;;;;;;0.63;0.63;;;;;;;;;;4990510;28;20038;-84
2023/12/14 06:50:48;;;;;;;2.22;2.10;;;;;;;;;;4998491;28;20053;-81
2023/12/14 06:53:16;;;;;;;0.15;0.15;;;;;;;;;;4997619;28;20439;-82
2023/12/14 06:55:44;;;;;;;0.13;0.13;;;;;;;;;;4980961;28;20052;-81
2023/12/14 06:58:12;;;;;;;0.73;0.73;;;;;;;;;;4992632;28;20066;-81
2023/12/14 07:00:39;;;;;;;0.20;0.20;;;;;;;;;;4983441;28;20066;-84
2023/12/14 07:03:07;;;;;;;0.00;0.00;;;;;;;;;;4990077;28;20438;-83
2023/12/14 07:05:34;;;;;;;1.40;1.30;;;;;;;;;;4972059;28;20153;-84
2023/12/14 07:08:02;;;;;;;0.30;0.30;;;;;;;;;;4984204;28;20125;-82
2023/12/14 07:10:30;;;;;;;0.20;0.20;;;;;;;;;;4974231;28;20054;-84
2023/12/14 07:12:57;;;;;;;0.95;0.88;;;;;;;;;;4995273;28;20054;-83
2023/12/14 07:15:25;;;;;;;0.95;0.30;;;;;;;;;;4988802;28;20054;-83
2023/12/14 07:17:52;;;;;;;0.25;0.25;;;;;;;;;;4989449;28;20718;-83
2023/12/14 07:20:21;;;;;;;0.60;0.40;;;;;;;;;;4969557;28;20129;-83
2023/12/14 07:22:49;;;;;;;0.40;0.40;;;;;;;;;;4964710;28;20035;-83
2023/12/14 07:25:17;;;;;;;0.20;0.20;;;;;;;;;;4989222;28;20603;-82
2023/12/14 07:27:46;;;;;;;0.20;0.20;;;;;;;;;;5003386;28;20053;-83
2023/12/14 07:30:14;;;;;;;1.10;1.10;;;;;;;;;;4988556;28;20057;-82
2023/12/14 07:32:42;;;;;;;0.22;0.22;;;;;;;;;;4983459;28;20047;-82
2023/12/14 07:35:10;;;;;;;0.52;0.52;;;;;;;;;;4993032;28;20069;-83
2023/12/14 07:37:38;;;;;;;1.45;1.10;;;;;;;;;;4990979;28;20077;-83
2023/12/14 07:40:06;;;;;;;1.23;0.30;;;;;;;;;;4968123;28;20056;-83
2023/12/14 07:42:33;;;;;;;0.28;0.28;;;;;;;;;;4979153;28;20125;-83
2023/12/14 07:45:01;;;;;;;0.40;0.40;;;;;;;;;;4985512;28;20420;-83
2023/12/14 07:47:28;;;;;;;0.55;0.40;;;;;;;;;;4968875;28;20468;-83
2023/12/14 07:49:56;;;;;;;0.20;0.20;;;;;;;;;;4977401;28;20385;-83
2023/12/14 07:52:23;;;;;;;1.00;1.00;;;;;;;;;;4990828;28;20092;-83
2023/12/14 07:54:51;;;;;;;0.22;0.22;;;;;;;;;;4996892;28;20054;-83
2023/12/14 07:57:19;;;;;;;3.53;1.38;;;;;;;;;;4983462;28;20086;-83
2023/12/14 07:59:47;;;;;;;0.10;0.10;;;;;;;;;;4974771;28;20050;-83
2023/12/14 08:02:15;;;;;;;3.72;3.53;;;;;;;;;;4964258;28;20351;-83
2023/12/14 08:04:42;;;;;;;0.17;0.17;;;;;;;;;;4989805;28;20051;-83
2023/12/14 08:07:10;;;;;;;0.38;0.38;;;;;;;;;;4976076;28;20398;-83
2023/12/14 08:09:37;;;;;;;0.82;0.82;;;;;;;;;;4981414;28;20046;-83
2023/12/14 08:12:05;;;;;;;0.35;0.35;;;;;;;;;;4965044;28;20039;-83
2023/12/14 08:14:38;;;;;;;0.93;0.93;;;;;;;;;;4938900;28;20050;-83
2023/12/14 08:17:06;;;;;;;0.20;0.20;;;;;;;;;;4963630;28;20124;-85
2023/12/14 08:19:33;;;;;;;0.50;0.50;;;;;;;;;;4972030;28;20121;-83
2023/12/14 08:22:00;;;;;;;0.20;0.20;;;;;;;;;;4992542;28;20124;-83
2023/12/14 08:24:28;;;;;;;0.17;0.17;;;;;;;;;;4978076;28;20524;-84
2023/12/14 08:26:56;;;;;;;1.05;1.02;;;;;;;;;;4972927;28;20047;-82
2023/12/14 08:29:24;;;;;;;0.55;0.55;;;;;;;;;;4967643;28;20159;-83
2023/12/14 08:31:53;;;;;;;1.38;1.27;;;;;;;;;;4968372;28;20042;-82
2023/12/14 08:34:29;;;;;;;0.10;0.10;;;;;;;;;;4990308;28;20069;-82
2023/12/14 08:36:56;;;;;;;0.10;0.10;;;;;;;;;;4984448;28;20054;-82
2023/12/14 08:39:24;;;;;;;0.20;0.20;;;;;;;;;;4982123;28;20520;-82
2023/12/14 08:41:51;;;;;;;0.20;0.20;;;;;;;;;;4961042;28;20047;-82
2023/12/14 08:44:19;;;;;;;0.95;0.85;;;;;;;;;;4972422;28;20419;-83
2023/12/14 08:46:49;;;;;;;0.35;0.35;;;;;;;;;;4987074;28;20619;-83
2023/12/14 08:49:18;;;;;;;0.20;0.20;;;;;;;;;;4965548;28;20218;-83
2023/12/14 08:51:45;;;;;;;0.85;0.85;;;;;;;;;;4979474;28;20224;-83
2023/12/14 08:54:13;;;;;;;1.10;0.75;;;;;;;;;;4980608;28;20051;-83
2023/12/14 08:56:40;;;;;;;0.20;0.20;;;;;;;;;;4986870;28;20106;-83
2023/12/14 08:59:09;;;;;;;1.80;0.82;;;;;;;;;;4979098;28;20046;-83
2023/12/14 09:01:37;;;;;;;0.50;0.50;;;;;;;;;;4980334;28;20070;-83
2023/12/14 09:04:05;;;;;;;0.40;0.40;;;;;;;;;;4987687;28;20116;-82
2023/12/14 09:06:32;;;;;;;0.05;0.05;;;;;;;;;;4979670;28;20055;-83
2023/12/14 09:09:00;;;;;;;0.38;0.38;;;;;;;;;;4984557;28;20133;-84
2023/12/14 09:11:27;;;;;;;0.30;0.30;;;;;;;;;;4970463;28;20057;-83
2023/12/14 09:13:56;;;;;;;4.30;1.55;;;;;;;;;;4977170;28;20105;-84
2023/12/14 09:16:26;;;;;;;0.30;0.30;;;;;;;;;;4987974;28;20125;-83
2023/12/14 09:18:54;;;;;;;0.30;0.30;;;;;;;;;;4980222;28;20513;-83
2023/12/14 09:21:22;;;;;;;2.25;2.05;;;;;;;;;;4981599;28;20054;-83
2023/12/14 09:24:04;;;;;;;3.30;2.50;;;;;;;;;;4975620;28;21015;-83
2023/12/14 09:26:32;;;;;;;0.43;0.43;;;;;;;;;;4961146;28;20128;-83
2023/12/14 09:28:59;;;;;;;1.55;1.05;;;;;;;;;;4992697;28;20109;-83
2023/12/14 09:31:27;;;;;;;5.13;1.50;;;;;;;;;;4989769;28;20042;-83
2023/12/14 09:33:55;;;;;;;0.20;0.20;;;;;;;;;;4982628;28;20056;-83
2023/12/14 09:36:23;;;;;;;0.50;0.50;;;;;;;;;;4966993;28;20535;-83
2023/12/14 09:38:50;;;;;;;0.90;0.90;;;;;;;;;;4977537;28;20464;-83
2023/12/14 09:41:18;;;;;;;0.20;0.20;;;;;;;;;;4983877;28;20046;-83
2023/12/14 09:43:46;;;;;;;0.52;0.52;;;;;;;;;;4951616;28;20390;-82
2023/12/14 09:46:14;;;;;;;0.38;0.38;;;;;;;;;;4964352;28;20042;-83
2023/12/14 09:48:42;;;;;;;3.00;1.83;;;;;;;;;;4952077;28;20525;-82
2023/12/14 09:51:10;;;;;;;1.85;1.75;;;;;;;;;;4971365;28;20105;-82
2023/12/14 09:53:38;;;;;;;0.55;0.47;;;;;;;;;;4955461;28;20049;-83
2023/12/14 09:56:06;;;;;;;1.48;1.38;;;;;;;;;;4948049;28;20050;-83
2023/12/14 09:58:33;;;;;;;0.73;0.73;;;;;;;;;;4965032;28;20301;-82
2023/12/14 10:01:04;;;;;;;0.10;0.10;;;;;;;;;;4972484;28;20093;-83
2023/12/14 10:03:32;;;;;;;1.38;0.77;;;;;;;;;;4983915;28;20085;-82
2023/12/14 10:06:01;;;;;;;0.25;0.25;;;;;;;;;;4988091;28;20053;-83
2023/12/14 10:08:30;;;;;;;0.47;0.47;;;;;;;;;;4985958;28;20048;-83
2023/12/14 10:10:57;;;;;;;1.25;1.25;;;;;;;;;;4989527;28;20524;-83
2023/12/14 10:13:38;;;;;;;0.30;0.30;;;;;;;;;;4958957;28;20054;-83
2023/12/14 10:16:06;;;;;;;0.73;0.73;;;;;;;;;;4980958;28;20061;-83
2023/12/14 10:18:34;;;;;;;0.30;0.30;;;;;;;;;;4964517;28;20057;-83
2023/12/14 10:21:02;;;;;;;0.68;0.68;;;;;;;;;;4980425;28;20073;-83
2023/12/14 10:23:29;;;;;;;0.52;0.52;;;;;;;;;;4968212;28;23086;-83
2023/12/14 10:25:57;;;;;;;1.13;1.13;;;;;;;;;;4970853;28;20529;-83
2023/12/14 10:28:25;;;;;;;0.40;0.40;;;;;;;;;;4944907;28;20043;-83
2023/12/14 10:30:53;;;;;;;0.52;0.52;;;;;;;;;;4964821;28;20607;-82
2023/12/14 10:33:20;;;;;;;0.32;0.32;;;;;;;;;;4961240;28;20138;-82
2023/12/14 10:35:48;;;;;;;0.40;0.40;;;;;;;;;;4978366;28;20066;-82
2023/12/14 10:38:15;;;;;;;1.45;1.35;;;;;;;;;;4978555;28;20050;-82
2023/12/14 10:40:45;;;;;;;2.15;2.00;;;;;;;;;;4982589;28;20065;-81
2023/12/14 10:43:17;;;;;;;0.30;0.30;;;;;;;;;;4982413;28;20050;-83
2023/12/14 10:46:07;;;;;;;0.32;0.32;;;;;;;;;;4983215;28;20117;-82
2023/12/14 10:48:36;;;;;;;1.15;1.02;;;;;;;;;;4976628;28;20042;-82
2023/12/14 10:51:05;;;;;;;0.45;0.40;;;;;;;;;;4973533;28;20423;-82
2023/12/14 10:53:34;;;;;;;1.88;1.77;;;;;;;;;;4979813;28;20058;-82
2023/12/14 10:56:06;;;;;;;0.57;0.57;;;;;;;;;;4970945;28;20054;-82
2023/12/14 10:58:51;;;;;;;0.47;0.47;;;;;;;;;;4989581;28;20045;-82
2023/12/14 11:01:20;;;;;;;0.85;0.85;;;;;;;;;;4980642;28;20034;-82
2023/12/14 11:03:50;;;;;;;0.20;0.20;;;;;;;;;;4973045;28;20039;-83
2023/12/14 11:06:22;;;;;;;0.52;0.52;;;;;;;;;;4980800;28;20394;-82
2023/12/14 11:08:51;;;;;;;0.10;0.10;;;;;;;;;;4957092;28;20246;-82
2023/12/14 11:11:20;;;;;;;0.85;0.85;;;;;;;;;;4979214;28;20054;-83
2023/12/14 11:13:51;;;;;;;0.20;0.20;;;;;;;;;;4980519;28;20060;-83
2023/12/14 11:16:22;;;;;;;0.30;0.30;;;;;;;;;;4967059;28;20050;-81
2023/12/14 11:19:10;;;;;;;0.35;0.35;;;;;;;;;;4972607;28;20053;-81
2023/12/14 11:21:37;;;;;;;0.17;0.17;;;;;;;;;;4964631;28;20070;-84
2023/12/14 11:24:06;;;;;;;0.10;0.10;;;;;;;;;;4969166;28;20038;-84
2023/12/14 11:26:33;;;;;;;1.00;1.00;;;;;;;;;;4986776;28;20057;-84
2023/12/14 11:29:01;;;;;;;0.20;0.20;;;;;;;;;;4992084;28;20535;-85
2023/12/14 11:31:29;;;;;;;0.32;0.32;;;;;;;;;;4992562;28;20434;-84
2023/12/14 11:33:57;;;;;;;0.10;0.10;;;;;;;;;;4991833;28;20393;-82
2023/12/14 11:36:26;;;;;;;1.30;1.20;;;;;;;;;;4992058;28;20054;-81
2023/12/14 11:38:55;;;;;;;1.05;1.05;;;;;;;;;;4970706;28;20081;-81
2023/12/14 11:41:25;;;;;;;0.10;0.10;;;;;;;;;;4970352;28;20057;-82
2023/12/14 11:43:53;;;;;;;0.40;0.40;;;;;;;;;;4972118;28;20050;-81
2023/12/14 11:46:20;;;;;;;1.30;1.20;;;;;;;;;;4974461;28;20167;-81
2023/12/14 11:48:48;;;;;;;1.15;1.05;;;;;;;;;;4986354;28;20161;-81
2023/12/14 11:51:16;;;;;;;0.22;0.22;;;;;;;;;;4992682;28;20212;-81
2023/12/14 11:53:50;;;;;;;1.48;1.38;;;;;;;;;;4989641;28;20054;-82
2023/12/14 11:56:27;;;;;;;0.13;0.13;;;;;;;;;;5092198;27;1260905;-80
2023/12/14 11:58:56;;;;;;;0.20;0.20;;;;;;;;;;5121016;28;20040;-80
2023/12/14 12:01:28;;;;;;;0.10;0.10;;;;;;;;;;5121664;28;20039;-79
2023/12/14 12:03:56;;;;;;;0.47;0.47;;;;;;;;;;5117792;28;20039;-79
2023/12/14 12:06:24;;;;;;;0.32;0.32;;;;;;;;;;5117662;28;20058;-80
2023/12/14 12:08:53;;;;;;;1.85;0.90;;;;;;;;;;5111210;28;20054;-82
2023/12/14 12:11:21;;;;;;;0.38;0.38;;;;;;;;;;5114254;28;20154;-82
2023/12/14 12:13:53;;;;;;;0.20;0.20;;;;;;;;;;5117478;28;20126;-80
2023/12/14 12:16:23;;;;;;;0.00;0.00;;;;;;;;;;5112759;28;20421;-81
2023/12/14 12:18:51;;;;;;;0.20;0.20;;;;;;;;;;5113259;28;20051;-80
2023/12/14 12:21:19;;;;;;;1.98;0.43;;;;;;;;;;5115554;28;20047;-81
2023/12/14 12:23:46;;;;;;;0.15;0.15;;;;;;;;;;5105620;28;20056;-79
2023/12/14 12:26:14;;;;;;;0.70;0.70;;;;;;;;;;5110375;28;20061;-81
2023/12/14 12:28:43;;;;;;;0.30;0.30;;;;;;;;;;5103639;28;20075;-82
2023/12/14 12:31:10;;;;;;;0.10;0.10;;;;;;;;;;5112269;28;20040;-82
2023/12/14 12:33:40;;;;;;;1.67;0.40;;;;;;;;;;5115911;28;20521;-84
2023/12/14 12:36:08;;;;;;;0.50;0.50;;;;;;;;;;5108152;28;20040;-80
2023/12/14 12:38:39;;;;;;;2.10;1.90;;;;;;;;;;5118383;28;20070;-81
2023/12/14 12:41:07;;;;;;;0.82;0.82;;;;;;;;;;5113237;28;20048;-81
2023/12/14 12:43:34;;;;;;;0.32;0.32;;;;;;;;;;5113518;28;20127;-81
2023/12/14 12:46:02;;;;;;;0.43;0.43;;;;;;;;;;5105822;28;20067;-82
2023/12/14 12:48:29;;;;;;;0.52;0.40;;;;;;;;;;5115518;28;20085;-82
2023/12/14 12:50:57;;;;;;;0.40;0.40;;;;;;;;;;5110276;28;20073;-80
2023/12/14 12:53:24;;;;;;;0.93;0.80;;;;;;;;;;5112016;28;20055;-81
2023/12/14 12:55:52;;;;;;;5.05;2.42;;;;;;;;;;5108815;28;20046;-79
2023/12/14 12:58:20;;;;;;;0.05;0.05;;;;;;;;;;5111821;28;20044;-80
2023/12/14 13:00:47;;;;;;;2.50;2.30;;;;;;;;;;5108630;28;20048;-82
2023/12/14 13:03:15;;;;;;;2.00;1.90;;;;;;;;;;5115203;28;20051;-82
2023/12/14 13:05:43;;;;;;;0.43;0.43;;;;;;;;;;5108799;28;20059;-84
2023/12/14 13:08:10;;;;;;;1.95;1.73;;;;;;;;;;5092527;28;20079;-84
2023/12/14 13:10:39;;;;;;;0.80;0.80;;;;;;;;;;5094978;28;20052;-81
2023/12/14 13:13:10;;;;;;;0.10;0.10;;;;;;;;;;5102347;28;20060;-81
2023/12/14 13:15:39;;;;;;;0.68;0.68;;;;;;;;;;5098588;28;20043;-82
2023/12/14 13:18:06;;;;;;;0.75;0.73;;;;;;;;;;5094973;28;20512;-82
2023/12/14 13:20:33;;;;;;;0.55;0.25;;;;;;;;;;5099887;28;20647;-81
2023/12/14 13:23:01;;;;;;;0.60;0.60;;;;;;;;;;5099101;28;20044;-81
2023/12/14 13:25:28;;;;;;;5.93;1.17;;;;;;;;;;5104018;28;20055;-85
2023/12/14 13:27:56;;;;;;;0.77;0.75;;;;;;;;;;5096656;28;20056;-81
2023/12/14 13:30:24;;;;;;;0.57;0.55;;;;;;;;;;5093139;28;20124;-82
2023/12/14 13:32:53;;;;;;;0.50;0.50;;;;;;;;;;5098982;28;20048;-82
2023/12/14 13:35:22;;;;;;;0.60;0.60;;;;;;;;;;5094872;28;20048;-82
2023/12/14 13:37:51;;;;;;;0.63;0.63;;;;;;;;;;5090022;28;20234;-81
2023/12/14 13:40:19;;;;;;;0.85;0.85;;;;;;;;;;5095349;28;20063;-82
2023/12/14 13:42:47;;;;;;;0.43;0.43;;;;;;;;;;5095471;28;20101;-83
2023/12/14 13:45:30;;;;;;;0.20;0.20;;;;;;;;;;5101843;28;20100;-81
2023/12/14 13:47:58;;;;;;;0.30;0.30;;;;;;;;;;5100128;28;20040;-81
2023/12/14 13:50:27;;;;;;;0.20;0.20;;;;;;;;;;5103308;28;20048;-82
2023/12/14 13:52:55;;;;;;;0.40;0.40;;;;;;;;;;5098695;28;20066;-82
2023/12/14 13:55:23;;;;;;;0.10;0.10;;;;;;;;;;5097321;28;20091;-82
2023/12/14 13:57:50;;;;;;;0.40;0.40;;;;;;;;;;5099762;28;20428;-82
2023/12/14 14:00:19;;;;;;;0.57;0.57;;;;;;;;;;5095531;28;20040;-82
2023/12/14 14:02:46;;;;;;;5.28;1.63;;;;;;;;;;5102971;28;20043;-83
2023/12/14 14:05:13;;;;;;;0.82;0.82;;;;;;;;;;5087878;28;20051;-82
2023/12/14 14:07:41;;;;;;;0.47;0.47;;;;;;;;;;5094450;28;20105;-81
2023/12/14 14:10:09;;;;;;;2.10;1.77;;;;;;;;;;5094802;28;20052;-82
2023/12/14 14:12:37;;;;;;;1.17;0.28;;;;;;;;;;5089129;28;20055;-81
2023/12/14 14:15:06;;;;;;;0.30;0.30;;;;;;;;;;5097948;28;20056;-81
2023/12/14 14:17:33;;;;;;;1.17;1.08;;;;;;;;;;5091902;28;20039;-82
2023/12/14 14:20:01;;;;;;;0.20;0.20;;;;;;;;;;5091946;28;20085;-82
2023/12/14 14:22:29;;;;;;;0.43;0.30;;;;;;;;;;5094290;28;20545;-82
2023/12/14 14:24:57;;;;;;;0.50;0.50;;;;;;;;;;5078396;28;20045;-84
2023/12/14 14:27:24;;;;;;;0.80;0.80;;;;;;;;;;5082214;28;20503;-82
2023/12/14 14:29:55;;;;;;;0.25;0.25;;;;;;;;;;5090125;28;20070;-81
2023/12/14 14:32:22;;;;;;;0.38;0.38;;;;;;;;;;5097983;28;20040;-83
2023/12/14 14:34:52;;;;;;;0.10;0.10;;;;;;;;;;5080231;28;20044;-82
2023/12/14 14:37:20;;;;;;;1.00;0.20;;;;;;;;;;5080679;28;20044;-82
2023/12/14 14:39:48;;;;;;;0.30;0.30;;;;;;;;;;5087615;28;20106;-81
2023/12/14 14:42:16;;;;;;;0.22;0.22;;;;;;;;;;5094781;28;20036;-83
2023/12/14 14:44:43;;;;;;;4.68;4.35;;;;;;;;;;5090914;28;20051;-82
2023/12/14 14:47:10;;;;;;;0.38;0.38;;;;;;;;;;5088046;28;20052;-81
2023/12/14 14:49:38;;;;;;;0.40;0.40;;;;;;;;;;5077116;28;20721;-82